sensor_id;sensor_type;location;lat;lon;timestamp;P1;durP1;ratioP1;P2;durP2;ratioP2
58752;SDS011;44525;46.052;13.610;2024-02-21T00:00:41;7.80;;;4.40;;
58752;SDS011;44525;46.052;13.610;2024-02-21T00:03:06;9.32;;;4.20;;
58752;SDS011;44525;46.052;13.610;2024-02-21T00:05:32;7.97;;;4.60;;
58752;SDS011;44525;46.052;13.610;2024-02-21T00:07:59;8.68;;;4.60;;
58752;SDS011;44525;46.052;13.610;2024-02-21T00:10:24;7.82;;;4.38;;
58752;SDS011;44525;46.052;13.610;2024-02-21T00:12:50;6.85;;;4.10;;
58752;SDS011;44525;46.052;13.610;2024-02-21T00:15:16;7.88;;;4.47;;
58752;SDS011;44525;46.052;13.610;2024-02-21T00:17:43;8.25;;;4.22;;
58752;SDS011;44525;46.052;13.610;2024-02-21T00:20:09;9.35;;;5.03;;
58752;SDS011;44525;46.052;13.610;2024-02-21T00:22:35;10.95;;;8.65;;
58752;SDS011;44525;46.052;13.610;2024-02-21T00:25:00;8.35;;;4.93;;
58752;SDS011;44525;46.052;13.610;2024-02-21T00:27:26;11.27;;;5.10;;
58752;SDS011;44525;46.052;13.610;2024-02-21T00:29:51;8.80;;;4.53;;
58752;SDS011;44525;46.052;13.610;2024-02-21T00:32:17;6.53;;;4.13;;
58752;SDS011;44525;46.052;13.610;2024-02-21T00:34:42;7.60;;;4.32;;
58752;SDS011;44525;46.052;13.610;2024-02-21T00:37:08;11.13;;;6.53;;
58752;SDS011;44525;46.052;13.610;2024-02-21T00:39:33;7.45;;;4.70;;
58752;SDS011;44525;46.052;13.610;2024-02-21T00:41:59;7.65;;;3.90;;
58752;SDS011;44525;46.052;13.610;2024-02-21T00:44:24;9.68;;;4.30;;
58752;SDS011;44525;46.052;13.610;2024-02-21T00:46:49;7.53;;;4.03;;
58752;SDS011;44525;46.052;13.610;2024-02-21T00:49:15;8.20;;;3.80;;
58752;SDS011;44525;46.052;13.610;2024-02-21T00:51:41;5.65;;;3.60;;
58752;SDS011;44525;46.052;13.610;2024-02-21T00:54:06;7.15;;;3.88;;
58752;SDS011;44525;46.052;13.610;2024-02-21T00:56:31;8.45;;;4.32;;
58752;SDS011;44525;46.052;13.610;2024-02-21T00:58:57;5.88;;;3.63;;
58752;SDS011;44525;46.052;13.610;2024-02-21T01:01:25;9.20;;;4.10;;
58752;SDS011;44525;46.052;13.610;2024-02-21T01:03:50;6.75;;;3.80;;
58752;SDS011;44525;46.052;13.610;2024-02-21T01:06:18;5.57;;;3.63;;
58752;SDS011;44525;46.052;13.610;2024-02-21T01:08:47;6.68;;;3.95;;
58752;SDS011;44525;46.052;13.610;2024-02-21T01:11:13;7.80;;;3.67;;
58752;SDS011;44525;46.052;13.610;2024-02-21T01:13:39;5.35;;;3.53;;
58752;SDS011;44525;46.052;13.610;2024-02-21T01:16:04;5.45;;;3.60;;
58752;SDS011;44525;46.052;13.610;2024-02-21T01:18:31;9.13;;;3.80;;
58752;SDS011;44525;46.052;13.610;2024-02-21T01:20:57;5.88;;;3.70;;
58752;SDS011;44525;46.052;13.610;2024-02-21T01:23:22;6.85;;;3.85;;
58752;SDS011;44525;46.052;13.610;2024-02-21T01:25:48;7.82;;;3.60;;
58752;SDS011;44525;46.052;13.610;2024-02-21T01:28:13;4.85;;;3.40;;
58752;SDS011;44525;46.052;13.610;2024-02-21T01:30:38;8.05;;;4.10;;
58752;SDS011;44525;46.052;13.610;2024-02-21T01:33:04;8.05;;;4.43;;
58752;SDS011;44525;46.052;13.610;2024-02-21T01:35:29;7.55;;;3.75;;
58752;SDS011;44525;46.052;13.610;2024-02-21T01:37:55;7.57;;;4.85;;
58752;SDS011;44525;46.052;13.610;2024-02-21T01:40:20;5.95;;;3.90;;
58752;SDS011;44525;46.052;13.610;2024-02-21T01:42:45;6.97;;;4.55;;
58752;SDS011;44525;46.052;13.610;2024-02-21T01:45:12;7.78;;;4.75;;
58752;SDS011;44525;46.052;13.610;2024-02-21T01:47:38;6.55;;;3.83;;
58752;SDS011;44525;46.052;13.610;2024-02-21T01:50:03;8.00;;;3.92;;
58752;SDS011;44525;46.052;13.610;2024-02-21T01:52:30;9.25;;;4.40;;
58752;SDS011;44525;46.052;13.610;2024-02-21T01:54:56;9.90;;;4.72;;
58752;SDS011;44525;46.052;13.610;2024-02-21T01:57:22;6.15;;;3.92;;
58752;SDS011;44525;46.052;13.610;2024-02-21T01:59:49;6.18;;;3.90;;
58752;SDS011;44525;46.052;13.610;2024-02-21T02:02:15;7.10;;;4.28;;
58752;SDS011;44525;46.052;13.610;2024-02-21T02:04:41;7.05;;;4.18;;
58752;SDS011;44525;46.052;13.610;2024-02-21T02:07:07;6.18;;;3.90;;
58752;SDS011;44525;46.052;13.610;2024-02-21T02:09:33;6.15;;;3.80;;
58752;SDS011;44525;46.052;13.610;2024-02-21T02:11:59;7.72;;;3.78;;
58752;SDS011;44525;46.052;13.610;2024-02-21T02:14:25;9.70;;;3.70;;
58752;SDS011;44525;46.052;13.610;2024-02-21T02:16:50;8.57;;;3.85;;
58752;SDS011;44525;46.052;13.610;2024-02-21T02:19:16;7.45;;;4.18;;
58752;SDS011;44525;46.052;13.610;2024-02-21T02:21:42;6.15;;;3.47;;
58752;SDS011;44525;46.052;13.610;2024-02-21T02:24:18;8.00;;;4.10;;
58752;SDS011;44525;46.052;13.610;2024-02-21T02:26:44;6.82;;;3.90;;
58752;SDS011;44525;46.052;13.610;2024-02-21T02:29:10;5.88;;;3.63;;
58752;SDS011;44525;46.052;13.610;2024-02-21T02:31:36;6.47;;;3.80;;
58752;SDS011;44525;46.052;13.610;2024-02-21T02:34:02;9.27;;;3.72;;
58752;SDS011;44525;46.052;13.610;2024-02-21T02:36:28;7.22;;;3.60;;
58752;SDS011;44525;46.052;13.610;2024-02-21T02:38:54;5.70;;;3.67;;
58752;SDS011;44525;46.052;13.610;2024-02-21T02:41:20;6.78;;;4.28;;
58752;SDS011;44525;46.052;13.610;2024-02-21T02:43:45;7.78;;;4.20;;
58752;SDS011;44525;46.052;13.610;2024-02-21T02:46:10;6.32;;;3.90;;
58752;SDS011;44525;46.052;13.610;2024-02-21T02:48:36;8.65;;;3.90;;
58752;SDS011;44525;46.052;13.610;2024-02-21T02:51:03;5.25;;;3.47;;
58752;SDS011;44525;46.052;13.610;2024-02-21T02:53:29;6.03;;;3.80;;
58752;SDS011;44525;46.052;13.610;2024-02-21T02:55:54;7.03;;;3.95;;
58752;SDS011;44525;46.052;13.610;2024-02-21T02:58:19;7.80;;;4.00;;
58752;SDS011;44525;46.052;13.610;2024-02-21T03:00:45;5.68;;;3.65;;
58752;SDS011;44525;46.052;13.610;2024-02-21T03:03:10;5.97;;;3.85;;
58752;SDS011;44525;46.052;13.610;2024-02-21T03:05:35;6.15;;;3.78;;
58752;SDS011;44525;46.052;13.610;2024-02-21T03:08:01;5.80;;;3.65;;
58752;SDS011;44525;46.052;13.610;2024-02-21T03:10:26;8.70;;;4.53;;
58752;SDS011;44525;46.052;13.610;2024-02-21T03:12:52;6.57;;;4.35;;
58752;SDS011;44525;46.052;13.610;2024-02-21T03:15:18;5.72;;;3.60;;
58752;SDS011;44525;46.052;13.610;2024-02-21T03:17:43;5.07;;;3.58;;
58752;SDS011;44525;46.052;13.610;2024-02-21T03:20:09;6.15;;;3.40;;
58752;SDS011;44525;46.052;13.610;2024-02-21T03:22:35;6.18;;;3.60;;
58752;SDS011;44525;46.052;13.610;2024-02-21T03:25:01;6.70;;;4.10;;
58752;SDS011;44525;46.052;13.610;2024-02-21T03:27:27;6.45;;;3.42;;
58752;SDS011;44525;46.052;13.610;2024-02-21T03:29:52;7.28;;;4.18;;
58752;SDS011;44525;46.052;13.610;2024-02-21T03:32:18;5.15;;;3.55;;
58752;SDS011;44525;46.052;13.610;2024-02-21T03:34:43;5.80;;;3.70;;
58752;SDS011;44525;46.052;13.610;2024-02-21T03:37:08;8.02;;;3.58;;
58752;SDS011;44525;46.052;13.610;2024-02-21T03:39:34;7.10;;;3.92;;
58752;SDS011;44525;46.052;13.610;2024-02-21T03:41:59;5.30;;;3.50;;
58752;SDS011;44525;46.052;13.610;2024-02-21T03:44:29;6.80;;;3.72;;
58752;SDS011;44525;46.052;13.610;2024-02-21T03:46:54;6.30;;;3.67;;
58752;SDS011;44525;46.052;13.610;2024-02-21T03:49:20;8.45;;;3.90;;
58752;SDS011;44525;46.052;13.610;2024-02-21T03:51:45;12.27;;;3.92;;
58752;SDS011;44525;46.052;13.610;2024-02-21T03:54:11;8.55;;;4.10;;
58752;SDS011;44525;46.052;13.610;2024-02-21T03:56:39;6.65;;;4.05;;
58752;SDS011;44525;46.052;13.610;2024-02-21T03:59:05;7.60;;;4.25;;
58752;SDS011;44525;46.052;13.610;2024-02-21T04:01:31;7.35;;;3.88;;
58752;SDS011;44525;46.052;13.610;2024-02-21T04:03:57;6.47;;;4.10;;
58752;SDS011;44525;46.052;13.610;2024-02-21T04:06:22;6.28;;;3.88;;
58752;SDS011;44525;46.052;13.610;2024-02-21T04:08:47;5.40;;;3.80;;
58752;SDS011;44525;46.052;13.610;2024-02-21T04:11:13;8.15;;;3.95;;
58752;SDS011;44525;46.052;13.610;2024-02-21T04:13:38;7.38;;;4.13;;
58752;SDS011;44525;46.052;13.610;2024-02-21T04:16:04;21.55;;;4.53;;
58752;SDS011;44525;46.052;13.610;2024-02-21T04:18:30;9.35;;;3.55;;
58752;SDS011;44525;46.052;13.610;2024-02-21T04:20:56;6.50;;;4.20;;
58752;SDS011;44525;46.052;13.610;2024-02-21T04:23:21;6.88;;;3.55;;
58752;SDS011;44525;46.052;13.610;2024-02-21T04:25:46;6.05;;;3.80;;
58752;SDS011;44525;46.052;13.610;2024-02-21T04:28:12;5.65;;;3.58;;
58752;SDS011;44525;46.052;13.610;2024-02-21T04:30:37;6.53;;;3.95;;
58752;SDS011;44525;46.052;13.610;2024-02-21T04:33:03;7.78;;;3.95;;
58752;SDS011;44525;46.052;13.610;2024-02-21T04:35:28;5.75;;;3.53;;
58752;SDS011;44525;46.052;13.610;2024-02-21T04:37:54;5.18;;;3.58;;
58752;SDS011;44525;46.052;13.610;2024-02-21T04:40:20;5.47;;;3.33;;
58752;SDS011;44525;46.052;13.610;2024-02-21T04:42:45;6.00;;;3.80;;
58752;SDS011;44525;46.052;13.610;2024-02-21T04:45:11;6.45;;;3.50;;
58752;SDS011;44525;46.052;13.610;2024-02-21T04:47:36;6.40;;;3.97;;
58752;SDS011;44525;46.052;13.610;2024-02-21T04:50:02;6.85;;;4.00;;
58752;SDS011;44525;46.052;13.610;2024-02-21T04:52:27;6.00;;;4.00;;
58752;SDS011;44525;46.052;13.610;2024-02-21T04:54:52;6.50;;;3.80;;
58752;SDS011;44525;46.052;13.610;2024-02-21T04:57:18;7.22;;;4.20;;
58752;SDS011;44525;46.052;13.610;2024-02-21T04:59:43;7.63;;;3.70;;
58752;SDS011;44525;46.052;13.610;2024-02-21T05:02:10;6.38;;;3.72;;
58752;SDS011;44525;46.052;13.610;2024-02-21T05:04:36;6.07;;;3.80;;
58752;SDS011;44525;46.052;13.610;2024-02-21T05:07:03;7.40;;;4.18;;
58752;SDS011;44525;46.052;13.610;2024-02-21T05:09:29;8.35;;;3.92;;
58752;SDS011;44525;46.052;13.610;2024-02-21T05:11:54;6.13;;;3.58;;
58752;SDS011;44525;46.052;13.610;2024-02-21T05:14:19;5.00;;;3.70;;
58752;SDS011;44525;46.052;13.610;2024-02-21T05:16:45;6.15;;;4.22;;
58752;SDS011;44525;46.052;13.610;2024-02-21T05:19:10;5.47;;;3.83;;
58752;SDS011;44525;46.052;13.610;2024-02-21T05:21:36;5.15;;;3.58;;
58752;SDS011;44525;46.052;13.610;2024-02-21T05:24:01;6.28;;;3.95;;
58752;SDS011;44525;46.052;13.610;2024-02-21T05:26:28;6.70;;;3.78;;
58752;SDS011;44525;46.052;13.610;2024-02-21T05:28:54;7.25;;;4.60;;
58752;SDS011;44525;46.052;13.610;2024-02-21T05:31:19;7.57;;;4.13;;
58752;SDS011;44525;46.052;13.610;2024-02-21T05:33:45;9.23;;;5.05;;
58752;SDS011;44525;46.052;13.610;2024-02-21T05:36:11;9.48;;;5.45;;
58752;SDS011;44525;46.052;13.610;2024-02-21T05:38:37;13.68;;;7.60;;
58752;SDS011;44525;46.052;13.610;2024-02-21T05:41:03;11.27;;;6.65;;
58752;SDS011;44525;46.052;13.610;2024-02-21T05:43:29;10.55;;;5.80;;
58752;SDS011;44525;46.052;13.610;2024-02-21T05:45:54;9.13;;;5.70;;
58752;SDS011;44525;46.052;13.610;2024-02-21T05:48:20;7.57;;;4.82;;
58752;SDS011;44525;46.052;13.610;2024-02-21T05:50:46;9.10;;;5.43;;
58752;SDS011;44525;46.052;13.610;2024-02-21T05:53:12;8.98;;;5.82;;
58752;SDS011;44525;46.052;13.610;2024-02-21T05:55:38;8.20;;;5.40;;
58752;SDS011;44525;46.052;13.610;2024-02-21T05:58:03;9.93;;;5.60;;
58752;SDS011;44525;46.052;13.610;2024-02-21T06:00:29;9.50;;;5.85;;
58752;SDS011;44525;46.052;13.610;2024-02-21T06:02:54;10.05;;;6.15;;
58752;SDS011;44525;46.052;13.610;2024-02-21T06:05:20;11.65;;;6.50;;
58752;SDS011;44525;46.052;13.610;2024-02-21T06:07:45;48.22;;;26.02;;
58752;SDS011;44525;46.052;13.610;2024-02-21T06:10:11;94.20;;;40.85;;
58752;SDS011;44525;46.052;13.610;2024-02-21T06:12:36;133.00;;;57.55;;
58752;SDS011;44525;46.052;13.610;2024-02-21T06:15:01;154.95;;;75.40;;
58752;SDS011;44525;46.052;13.610;2024-02-21T06:17:27;111.85;;;52.38;;
58752;SDS011;44525;46.052;13.610;2024-02-21T06:19:53;85.72;;;42.35;;
58752;SDS011;44525;46.052;13.610;2024-02-21T06:22:18;52.03;;;24.70;;
58752;SDS011;44525;46.052;13.610;2024-02-21T06:24:44;50.42;;;26.15;;
58752;SDS011;44525;46.052;13.610;2024-02-21T06:27:09;38.15;;;19.38;;
58752;SDS011;44525;46.052;13.610;2024-02-21T06:29:36;30.63;;;17.90;;
58752;SDS011;44525;46.052;13.610;2024-02-21T06:32:02;28.67;;;16.77;;
58752;SDS011;44525;46.052;13.610;2024-02-21T06:34:27;30.98;;;18.65;;
58752;SDS011;44525;46.052;13.610;2024-02-21T06:36:52;29.20;;;17.35;;
58752;SDS011;44525;46.052;13.610;2024-02-21T06:39:18;23.23;;;13.55;;
58752;SDS011;44525;46.052;13.610;2024-02-21T06:41:43;16.85;;;9.32;;
58752;SDS011;44525;46.052;13.610;2024-02-21T06:44:09;13.85;;;7.43;;
58752;SDS011;44525;46.052;13.610;2024-02-21T06:46:34;13.15;;;7.97;;
58752;SDS011;44525;46.052;13.610;2024-02-21T06:49:00;12.50;;;8.75;;
58752;SDS011;44525;46.052;13.610;2024-02-21T06:51:26;13.63;;;8.00;;
58752;SDS011;44525;46.052;13.610;2024-02-21T06:53:52;14.25;;;8.88;;
58752;SDS011;44525;46.052;13.610;2024-02-21T06:56:18;16.27;;;9.85;;
58752;SDS011;44525;46.052;13.610;2024-02-21T06:58:44;16.65;;;11.40;;
58752;SDS011;44525;46.052;13.610;2024-02-21T07:01:10;14.65;;;8.90;;
58752;SDS011;44525;46.052;13.610;2024-02-21T07:03:35;10.68;;;8.63;;
58752;SDS011;44525;46.052;13.610;2024-02-21T07:06:01;12.95;;;8.90;;
58752;SDS011;44525;46.052;13.610;2024-02-21T07:08:26;13.85;;;9.80;;
58752;SDS011;44525;46.052;13.610;2024-02-21T07:10:52;15.65;;;11.35;;
58752;SDS011;44525;46.052;13.610;2024-02-21T07:13:18;15.80;;;10.15;;
58752;SDS011;44525;46.052;13.610;2024-02-21T07:15:43;14.90;;;9.90;;
58752;SDS011;44525;46.052;13.610;2024-02-21T07:18:08;14.40;;;10.13;;
58752;SDS011;44525;46.052;13.610;2024-02-21T07:20:34;13.93;;;9.05;;
58752;SDS011;44525;46.052;13.610;2024-02-21T07:23:01;10.77;;;7.15;;
58752;SDS011;44525;46.052;13.610;2024-02-21T07:25:27;10.18;;;7.72;;
58752;SDS011;44525;46.052;13.610;2024-02-21T07:27:52;14.82;;;10.60;;
58752;SDS011;44525;46.052;13.610;2024-02-21T07:30:18;18.08;;;12.48;;
58752;SDS011;44525;46.052;13.610;2024-02-21T07:32:43;11.80;;;7.35;;
58752;SDS011;44525;46.052;13.610;2024-02-21T07:35:09;14.35;;;7.40;;
58752;SDS011;44525;46.052;13.610;2024-02-21T07:37:36;25.63;;;16.80;;
58752;SDS011;44525;46.052;13.610;2024-02-21T07:40:03;31.63;;;19.55;;
58752;SDS011;44525;46.052;13.610;2024-02-21T07:42:32;11.90;;;7.93;;
58752;SDS011;44525;46.052;13.610;2024-02-21T07:44:57;8.75;;;5.15;;
58752;SDS011;44525;46.052;13.610;2024-02-21T07:47:23;7.88;;;4.90;;
58752;SDS011;44525;46.052;13.610;2024-02-21T07:49:48;8.93;;;4.95;;
58752;SDS011;44525;46.052;13.610;2024-02-21T07:52:14;7.25;;;4.40;;
58752;SDS011;44525;46.052;13.610;2024-02-21T07:54:40;7.47;;;4.75;;
58752;SDS011;44525;46.052;13.610;2024-02-21T07:57:06;9.02;;;4.82;;
58752;SDS011;44525;46.052;13.610;2024-02-21T07:59:32;10.50;;;4.13;;
58752;SDS011;44525;46.052;13.610;2024-02-21T08:01:57;6.47;;;3.35;;
58752;SDS011;44525;46.052;13.610;2024-02-21T08:04:23;7.80;;;3.97;;
58752;SDS011;44525;46.052;13.610;2024-02-21T08:06:52;6.13;;;3.30;;
58752;SDS011;44525;46.052;13.610;2024-02-21T08:09:19;8.07;;;4.10;;
58752;SDS011;44525;46.052;13.610;2024-02-21T08:11:44;6.30;;;4.28;;
58752;SDS011;44525;46.052;13.610;2024-02-21T08:14:10;6.65;;;4.07;;
58752;SDS011;44525;46.052;13.610;2024-02-21T08:16:35;6.35;;;3.50;;
58752;SDS011;44525;46.052;13.610;2024-02-21T08:19:00;6.88;;;4.10;;
58752;SDS011;44525;46.052;13.610;2024-02-21T08:21:28;6.13;;;3.70;;
58752;SDS011;44525;46.052;13.610;2024-02-21T08:23:54;6.78;;;4.05;;
58752;SDS011;44525;46.052;13.610;2024-02-21T08:26:20;10.40;;;5.22;;
58752;SDS011;44525;46.052;13.610;2024-02-21T08:28:45;5.97;;;3.97;;
58752;SDS011;44525;46.052;13.610;2024-02-21T08:31:11;8.57;;;3.90;;
58752;SDS011;44525;46.052;13.610;2024-02-21T08:33:36;7.25;;;4.65;;
58752;SDS011;44525;46.052;13.610;2024-02-21T08:36:01;7.75;;;4.07;;
58752;SDS011;44525;46.052;13.610;2024-02-21T08:38:28;5.88;;;3.80;;
58752;SDS011;44525;46.052;13.610;2024-02-21T08:40:53;6.03;;;4.00;;
58752;SDS011;44525;46.052;13.610;2024-02-21T08:43:19;7.53;;;4.93;;
58752;SDS011;44525;46.052;13.610;2024-02-21T08:45:44;7.97;;;5.47;;
58752;SDS011;44525;46.052;13.610;2024-02-21T08:48:09;6.65;;;4.43;;
58752;SDS011;44525;46.052;13.610;2024-02-21T08:50:35;8.18;;;4.85;;
58752;SDS011;44525;46.052;13.610;2024-02-21T08:53:01;6.13;;;4.00;;
58752;SDS011;44525;46.052;13.610;2024-02-21T08:55:26;5.78;;;3.70;;
58752;SDS011;44525;46.052;13.610;2024-02-21T08:57:52;7.28;;;3.50;;
58752;SDS011;44525;46.052;13.610;2024-02-21T09:00:17;7.45;;;3.25;;
58752;SDS011;44525;46.052;13.610;2024-02-21T09:02:43;6.10;;;3.78;;
58752;SDS011;44525;46.052;13.610;2024-02-21T09:05:08;6.50;;;4.60;;
58752;SDS011;44525;46.052;13.610;2024-02-21T09:07:34;7.03;;;4.30;;
58752;SDS011;44525;46.052;13.610;2024-02-21T09:09:59;7.03;;;3.75;;
58752;SDS011;44525;46.052;13.610;2024-02-21T09:12:25;8.25;;;4.15;;
58752;SDS011;44525;46.052;13.610;2024-02-21T09:14:51;6.53;;;4.15;;
58752;SDS011;44525;46.052;13.610;2024-02-21T09:17:16;6.88;;;4.15;;
58752;SDS011;44525;46.052;13.610;2024-02-21T09:19:45;6.32;;;4.07;;
58752;SDS011;44525;46.052;13.610;2024-02-21T09:22:15;6.22;;;3.65;;
58752;SDS011;44525;46.052;13.610;2024-02-21T09:24:40;6.38;;;3.75;;
58752;SDS011;44525;46.052;13.610;2024-02-21T09:27:06;6.03;;;3.47;;
58752;SDS011;44525;46.052;13.610;2024-02-21T09:29:31;5.40;;;3.28;;
58752;SDS011;44525;46.052;13.610;2024-02-21T09:31:58;11.00;;;7.97;;
58752;SDS011;44525;46.052;13.610;2024-02-21T09:34:24;9.82;;;4.55;;
58752;SDS011;44525;46.052;13.610;2024-02-21T09:36:50;5.35;;;3.60;;
58752;SDS011;44525;46.052;13.610;2024-02-21T09:39:15;5.15;;;3.40;;
58752;SDS011;44525;46.052;13.610;2024-02-21T09:41:45;5.95;;;4.05;;
58752;SDS011;44525;46.052;13.610;2024-02-21T09:51:49;6.75;;;4.10;;
58752;SDS011;44525;46.052;13.610;2024-02-21T09:54:17;6.25;;;3.97;;
58752;SDS011;44525;46.052;13.610;2024-02-21T09:56:46;6.88;;;3.95;;
58752;SDS011;44525;46.052;13.610;2024-02-21T09:59:12;6.90;;;4.25;;
58752;SDS011;44525;46.052;13.610;2024-02-21T10:01:44;6.85;;;3.78;;
58752;SDS011;44525;46.052;13.610;2024-02-21T10:04:11;5.93;;;3.78;;
58752;SDS011;44525;46.052;13.610;2024-02-21T10:06:37;5.53;;;3.50;;
58752;SDS011;44525;46.052;13.610;2024-02-21T10:09:03;7.85;;;3.80;;
58752;SDS011;44525;46.052;13.610;2024-02-21T10:11:31;5.43;;;3.40;;
58752;SDS011;44525;46.052;13.610;2024-02-21T10:14:02;8.63;;;4.38;;
58752;SDS011;44525;46.052;13.610;2024-02-21T10:16:29;7.55;;;4.00;;
58752;SDS011;44525;46.052;13.610;2024-02-21T10:18:55;5.18;;;3.47;;
58752;SDS011;44525;46.052;13.610;2024-02-21T10:21:20;10.38;;;5.53;;
58752;SDS011;44525;46.052;13.610;2024-02-21T10:23:46;10.73;;;5.82;;
58752;SDS011;44525;46.052;13.610;2024-02-21T10:26:14;10.30;;;5.13;;
58752;SDS011;44525;46.052;13.610;2024-02-21T10:28:40;7.85;;;4.07;;
58752;SDS011;44525;46.052;13.610;2024-02-21T10:31:10;8.90;;;4.82;;
58752;SDS011;44525;46.052;13.610;2024-02-21T10:33:37;12.32;;;4.85;;
58752;SDS011;44525;46.052;13.610;2024-02-21T10:36:09;8.90;;;5.07;;
58752;SDS011;44525;46.052;13.610;2024-02-21T10:38:38;6.75;;;3.90;;
58752;SDS011;44525;46.052;13.610;2024-02-21T10:41:05;8.43;;;3.80;;
58752;SDS011;44525;46.052;13.610;2024-02-21T10:43:39;6.70;;;3.63;;
58752;SDS011;44525;46.052;13.610;2024-02-21T10:46:08;4.95;;;3.35;;
58752;SDS011;44525;46.052;13.610;2024-02-21T10:48:44;6.43;;;3.97;;
58752;SDS011;44525;46.052;13.610;2024-02-21T10:56:32;9.10;;;4.55;;
58752;SDS011;44525;46.052;13.610;2024-02-21T10:59:05;6.72;;;3.80;;
58752;SDS011;44525;46.052;13.610;2024-02-21T11:01:32;10.25;;;3.83;;
58752;SDS011;44525;46.052;13.610;2024-02-21T11:04:18;8.38;;;4.28;;
58752;SDS011;44525;46.052;13.610;2024-02-21T11:06:43;8.20;;;4.40;;
58752;SDS011;44525;46.052;13.610;2024-02-21T11:09:10;5.97;;;3.63;;
58752;SDS011;44525;46.052;13.610;2024-02-21T11:11:40;7.45;;;4.10;;
58752;SDS011;44525;46.052;13.610;2024-02-21T11:14:19;6.07;;;4.13;;
58752;SDS011;44525;46.052;13.610;2024-02-21T11:16:46;6.93;;;4.07;;
58752;SDS011;44525;46.052;13.610;2024-02-21T11:21:43;7.03;;;4.57;;
58752;SDS011;44525;46.052;13.610;2024-02-21T11:24:08;6.22;;;3.88;;
58752;SDS011;44525;46.052;13.610;2024-02-21T11:26:36;9.20;;;3.65;;
58752;SDS011;44525;46.052;13.610;2024-02-21T11:29:03;5.32;;;3.53;;
58752;SDS011;44525;46.052;13.610;2024-02-21T11:31:41;4.50;;;2.83;;
58752;SDS011;44525;46.052;13.610;2024-02-21T11:34:11;6.68;;;3.10;;
58752;SDS011;44525;46.052;13.610;2024-02-21T11:36:57;8.00;;;4.00;;
58752;SDS011;44525;46.052;13.610;2024-02-21T11:39:23;6.72;;;3.30;;
58752;SDS011;44525;46.052;13.610;2024-02-21T11:42:03;4.47;;;3.15;;
58752;SDS011;44525;46.052;13.610;2024-02-21T11:44:38;7.18;;;4.20;;
58752;SDS011;44525;46.052;13.610;2024-02-21T11:47:04;23.08;;;9.40;;
58752;SDS011;44525;46.052;13.610;2024-02-21T11:49:30;6.78;;;3.60;;
58752;SDS011;44525;46.052;13.610;2024-02-21T11:52:00;6.90;;;3.78;;
58752;SDS011;44525;46.052;13.610;2024-02-21T11:54:28;4.43;;;3.13;;
58752;SDS011;44525;46.052;13.610;2024-02-21T11:56:54;5.03;;;3.08;;
58752;SDS011;44525;46.052;13.610;2024-02-21T11:59:19;6.18;;;3.17;;
58752;SDS011;44525;46.052;13.610;2024-02-21T12:01:45;5.25;;;3.25;;
58752;SDS011;44525;46.052;13.610;2024-02-21T12:04:11;4.47;;;3.10;;
58752;SDS011;44525;46.052;13.610;2024-02-21T12:06:36;6.60;;;3.33;;
58752;SDS011;44525;46.052;13.610;2024-02-21T12:09:02;7.07;;;3.80;;
58752;SDS011;44525;46.052;13.610;2024-02-21T12:11:27;5.90;;;3.30;;
58752;SDS011;44525;46.052;13.610;2024-02-21T12:13:59;6.35;;;3.50;;
58752;SDS011;44525;46.052;13.610;2024-02-21T12:16:29;5.90;;;3.08;;
58752;SDS011;44525;46.052;13.610;2024-02-21T12:18:56;6.18;;;3.25;;
58752;SDS011;44525;46.052;13.610;2024-02-21T12:21:25;5.10;;;3.33;;
58752;SDS011;44525;46.052;13.610;2024-02-21T12:23:58;5.53;;;3.67;;
58752;SDS011;44525;46.052;13.610;2024-02-21T12:26:36;9.55;;;4.50;;
58752;SDS011;44525;46.052;13.610;2024-02-21T12:29:02;4.85;;;3.28;;
58752;SDS011;44525;46.052;13.610;2024-02-21T12:31:27;5.22;;;3.45;;
58752;SDS011;44525;46.052;13.610;2024-02-21T12:33:53;6.50;;;4.60;;
58752;SDS011;44525;46.052;13.610;2024-02-21T12:36:18;6.07;;;4.07;;
58752;SDS011;44525;46.052;13.610;2024-02-21T12:38:44;6.43;;;3.75;;
58752;SDS011;44525;46.052;13.610;2024-02-21T12:41:11;6.07;;;3.90;;
58752;SDS011;44525;46.052;13.610;2024-02-21T12:43:37;7.28;;;3.83;;
58752;SDS011;44525;46.052;13.610;2024-02-21T12:46:03;5.38;;;3.45;;
58752;SDS011;44525;46.052;13.610;2024-02-21T12:48:28;5.80;;;3.60;;
58752;SDS011;44525;46.052;13.610;2024-02-21T12:50:54;6.50;;;3.78;;
58752;SDS011;44525;46.052;13.610;2024-02-21T12:53:19;6.60;;;3.58;;
58752;SDS011;44525;46.052;13.610;2024-02-21T12:55:49;6.20;;;4.13;;
58752;SDS011;44525;46.052;13.610;2024-02-21T12:58:15;14.57;;;9.00;;
58752;SDS011;44525;46.052;13.610;2024-02-21T13:00:40;9.55;;;5.15;;
58752;SDS011;44525;46.052;13.610;2024-02-21T13:03:06;5.93;;;3.80;;
58752;SDS011;44525;46.052;13.610;2024-02-21T13:05:32;5.90;;;3.88;;
58752;SDS011;44525;46.052;13.610;2024-02-21T13:07:57;7.35;;;4.28;;
58752;SDS011;44525;46.052;13.610;2024-02-21T13:10:23;7.65;;;4.35;;
58752;SDS011;44525;46.052;13.610;2024-02-21T13:12:49;5.45;;;3.75;;
58752;SDS011;44525;46.052;13.610;2024-02-21T13:15:14;6.18;;;3.70;;
58752;SDS011;44525;46.052;13.610;2024-02-21T13:17:41;6.57;;;4.20;;
58752;SDS011;44525;46.052;13.610;2024-02-21T13:20:07;6.97;;;4.20;;
58752;SDS011;44525;46.052;13.610;2024-02-21T13:22:33;6.60;;;4.72;;
58752;SDS011;44525;46.052;13.610;2024-02-21T13:24:59;6.05;;;4.13;;
58752;SDS011;44525;46.052;13.610;2024-02-21T13:27:25;7.00;;;4.45;;
58752;SDS011;44525;46.052;13.610;2024-02-21T13:29:50;6.65;;;4.03;;
58752;SDS011;44525;46.052;13.610;2024-02-21T13:32:15;9.25;;;6.18;;
58752;SDS011;44525;46.052;13.610;2024-02-21T13:34:41;7.43;;;5.05;;
58752;SDS011;44525;46.052;13.610;2024-02-21T13:37:07;7.43;;;4.18;;
58752;SDS011;44525;46.052;13.610;2024-02-21T13:39:34;6.85;;;4.22;;
58752;SDS011;44525;46.052;13.610;2024-02-21T13:42:03;7.25;;;4.50;;
58752;SDS011;44525;46.052;13.610;2024-02-21T13:44:30;7.90;;;4.60;;
58752;SDS011;44525;46.052;13.610;2024-02-21T13:46:56;7.00;;;4.65;;
58752;SDS011;44525;46.052;13.610;2024-02-21T13:49:22;8.18;;;4.50;;
58752;SDS011;44525;46.052;13.610;2024-02-21T13:51:47;8.07;;;4.70;;
58752;SDS011;44525;46.052;13.610;2024-02-21T13:54:13;6.60;;;4.03;;
58752;SDS011;44525;46.052;13.610;2024-02-21T13:56:42;11.70;;;8.75;;
58752;SDS011;44525;46.052;13.610;2024-02-21T13:59:08;5.97;;;4.40;;
58752;SDS011;44525;46.052;13.610;2024-02-21T14:01:33;7.13;;;4.78;;
58752;SDS011;44525;46.052;13.610;2024-02-21T14:03:58;6.70;;;4.00;;
58752;SDS011;44525;46.052;13.610;2024-02-21T14:06:24;6.63;;;4.30;;
58752;SDS011;44525;46.052;13.610;2024-02-21T14:08:49;7.63;;;4.40;;
58752;SDS011;44525;46.052;13.610;2024-02-21T14:11:15;6.53;;;4.00;;
58752;SDS011;44525;46.052;13.610;2024-02-21T14:13:40;6.72;;;4.10;;
58752;SDS011;44525;46.052;13.610;2024-02-21T14:16:09;7.50;;;4.43;;
58752;SDS011;44525;46.052;13.610;2024-02-21T14:18:36;8.20;;;4.47;;
58752;SDS011;44525;46.052;13.610;2024-02-21T14:21:03;7.90;;;5.35;;
58752;SDS011;44525;46.052;13.610;2024-02-21T14:23:28;6.93;;;4.45;;
58752;SDS011;44525;46.052;13.610;2024-02-21T14:25:54;7.07;;;4.90;;
58752;SDS011;44525;46.052;13.610;2024-02-21T14:28:19;8.40;;;5.53;;
58752;SDS011;44525;46.052;13.610;2024-02-21T14:30:45;7.18;;;4.10;;
58752;SDS011;44525;46.052;13.610;2024-02-21T14:33:12;8.52;;;4.40;;
58752;SDS011;44525;46.052;13.610;2024-02-21T14:35:38;6.38;;;4.40;;
58752;SDS011;44525;46.052;13.610;2024-02-21T14:38:03;8.45;;;4.15;;
58752;SDS011;44525;46.052;13.610;2024-02-21T14:40:29;7.45;;;4.95;;